Portada
METAR-TAF:

METAR-TAF

Aeroports :

Tirupati, Índia

latitud: 13-38-16N, longitud: 79-32-50E, altitud: 107 m

Observació

L'informe es va fer fa 37 minuts, a les 11:30 UTC
Vent 8 kt del Est/Nord-Est
Temperatura 31°C
Humitat 40%
Pressió 1013 hPa
Visibilitat: 6000 m

METAR: VOTP 171130Z 07008KT 6000 NSC 31/16 Q1013

Hora: 17:37 (12:07 UTC)

Pronòstic

L'informe es va fer fa 4 hores i 7 minuts, a les 08:00 UTC
Pronòstic vàlid del 17 a les 09 UTC al 17 a les 18 UTC
Vent 8 kt del Est/Nord-Est
Visibilitat: 6000 m
Escasses núvols a una alçada de 2000 ft
calitja
Temporalment
l' 17 a les 09 UTC al 17 a les 11 UTC
Vent 8 kt del Est
Temporalment
l' 17 a les 11 UTC al 17 a les 18 UTC
Vent 8 kt del Nord-Est
Visibilitat: 5000 m
boirina

TAF: VOTP 170800Z 1709/1718 07008KT 6000 HZ FEW020 TEMPO 1709/1711 09008KT NSC TEMPO 1711/1718 04008KT 5000 BR NSC

Observacions i pronòstics meteorològics de més de 4000 aeroports (METAR i TAF).

Les estacions disponibles són els punts grocs i vermells al mapa.

Posi el ratolí al punt desitjat per veure el nom de l'estació.

Feu clic per veure les observacions i els pronòstics meteorològics.

Per canviar el mapa: feu clic els botons verds amb una creu de color negre per apropar; al botó verd amb un guió per allunyar la imatge; o en les fletxes verdes per a mapes adjacents.


METAR-TAF: